createdAt,value
2018-05-26T00:01:31.949Z,13.50
2018-05-26T00:03:59.110Z,13.40
2018-05-26T00:06:26.306Z,13.40
2018-05-26T00:08:52.713Z,13.40
2018-05-26T00:11:19.207Z,13.40
2018-05-26T00:13:46.378Z,13.40
2018-05-26T00:16:13.592Z,13.30
2018-05-26T00:18:40.110Z,13.30
2018-05-26T00:21:07.390Z,13.30
2018-05-26T00:23:33.900Z,13.30
2018-05-26T00:26:00.399Z,13.30
2018-05-26T00:28:27.573Z,13.20
2018-05-26T00:30:54.019Z,13.20
2018-05-26T00:33:21.257Z,13.20
2018-05-26T00:35:47.673Z,13.10
2018-05-26T00:38:14.101Z,13.10
2018-05-26T00:40:41.301Z,13.10
2018-05-26T00:43:07.762Z,13.10
2018-05-26T00:45:34.214Z,13.10
2018-05-26T00:48:00.664Z,13.00
2018-05-26T00:50:27.223Z,13.00
2018-05-26T00:52:53.879Z,13.00
2018-05-26T00:55:21.107Z,12.90
2018-05-26T00:57:47.536Z,12.90
2018-05-26T01:00:14.020Z,12.90
2018-05-26T01:02:40.454Z,12.90
2018-05-26T01:05:06.976Z,12.80
2018-05-26T01:07:34.182Z,12.80
2018-05-26T01:10:01.549Z,12.80
2018-05-26T01:12:27.955Z,12.80
2018-05-26T01:14:54.439Z,12.80
2018-05-26T01:17:21.711Z,12.70
2018-05-26T01:19:48.985Z,12.70
2018-05-26T01:22:16.183Z,12.70
2018-05-26T01:24:42.608Z,12.70
2018-05-26T01:27:09.174Z,12.80
2018-05-26T01:29:36.447Z,12.80
2018-05-26T01:32:03.729Z,12.70
2018-05-26T01:34:30.185Z,12.70
2018-05-26T01:36:56.842Z,12.70
2018-05-26T01:39:23.399Z,12.70
2018-05-26T01:41:50.568Z,12.70
2018-05-26T01:44:17.845Z,12.60
2018-05-26T01:46:44.989Z,12.60
2018-05-26T01:49:12.888Z,12.60
2018-05-26T01:51:40.047Z,12.60
2018-05-26T01:54:07.247Z,12.60
2018-05-26T01:56:34.405Z,12.50
2018-05-26T01:59:00.813Z,12.50
2018-05-26T02:01:27.299Z,12.50
2018-05-26T02:03:53.725Z,12.50
2018-05-26T02:06:20.954Z,12.50
2018-05-26T02:08:48.118Z,12.40
2018-05-26T02:11:15.900Z,12.40
2018-05-26T02:13:42.334Z,12.40
2018-05-26T02:16:08.769Z,12.40
2018-05-26T02:18:35.216Z,12.30
2018-05-26T02:21:01.649Z,12.30
2018-05-26T02:23:28.065Z,12.30
2018-05-26T02:25:54.474Z,12.30
2018-05-26T02:28:21.015Z,12.20
2018-05-26T02:30:47.416Z,12.20
2018-05-26T02:33:14.370Z,12.20
2018-05-26T02:35:40.893Z,12.20
2018-05-26T02:38:08.067Z,12.10
2018-05-26T02:40:35.342Z,12.10
2018-05-26T02:43:02.621Z,12.10
2018-05-26T02:45:29.030Z,12.10
2018-05-26T02:47:55.469Z,12.10
2018-05-26T02:50:21.988Z,12.00
2018-05-26T02:52:48.444Z,12.00
2018-05-26T02:55:57.778Z,12.00
2018-05-26T02:58:24.418Z,12.00
2018-05-26T03:00:50.898Z,12.00
2018-05-26T03:03:17.299Z,12.00
2018-05-26T03:05:50.569Z,11.90
2018-05-26T03:08:23.091Z,11.90
2018-05-26T03:10:55.500Z,11.90
2018-05-26T03:13:28.890Z,11.90
2018-05-26T03:16:12.256Z,11.90
2018-05-26T03:18:39.443Z,11.90
2018-05-26T03:21:06.093Z,11.90
2018-05-26T03:23:32.566Z,12.00
2018-05-26T03:25:59.003Z,12.00
2018-05-26T03:28:25.429Z,12.00
2018-05-26T03:30:51.913Z,12.00
2018-05-26T03:33:19.189Z,12.10
2018-05-26T03:35:45.631Z,12.10
2018-05-26T03:38:13.840Z,12.20
2018-05-26T03:40:41.054Z,12.20
2018-05-26T03:43:07.492Z,12.20
2018-05-26T03:45:33.923Z,12.30
2018-05-26T03:48:01.202Z,12.40
2018-05-26T03:50:28.521Z,12.40
2018-05-26T03:52:55.570Z,12.40
2018-05-26T03:55:35.026Z,12.50
2018-05-26T03:58:14.642Z,12.70
2018-05-26T04:00:41.124Z,12.70
2018-05-26T04:03:07.563Z,12.80
2018-05-26T04:05:34.029Z,13.00
2018-05-26T04:08:00.504Z,13.40
2018-05-26T04:10:26.971Z,14.10
2018-05-26T04:12:53.419Z,14.70
2018-05-26T04:15:19.875Z,15.30
2018-05-26T04:17:46.294Z,16.10
2018-05-26T04:20:12.720Z,16.80
2018-05-26T04:22:39.193Z,17.50
2018-05-26T04:25:06.443Z,18.80
2018-05-26T04:27:33.752Z,19.40
2018-05-26T04:30:01.106Z,19.90
2018-05-26T04:32:27.571Z,19.90
2018-05-26T04:34:54.750Z,20.90
2018-05-26T04:37:21.903Z,21.40
2018-05-26T04:39:48.323Z,21.40
2018-05-26T04:42:14.845Z,21.90
2018-05-26T04:44:41.299Z,22.20
2018-05-26T04:47:08.506Z,23.00
2018-05-26T04:49:34.929Z,23.00
2018-05-26T04:52:01.486Z,23.50
2018-05-26T04:54:28.701Z,24.30
2018-05-26T04:56:55.177Z,24.30
2018-05-26T04:59:21.595Z,24.80
2018-05-26T05:01:48.040Z,25.20
2018-05-26T05:04:14.474Z,25.40
2018-05-26T05:06:41.760Z,26.00
2018-05-26T05:09:08.268Z,26.00
2018-05-26T05:11:34.691Z,26.50
2018-05-26T05:14:01.156Z,27.00
2018-05-26T05:16:27.611Z,27.50
2018-05-26T05:18:54.027Z,27.80
2018-05-26T05:21:21.315Z,28.70
2018-05-26T05:23:48.492Z,28.80
2018-05-26T05:26:15.652Z,29.20
2018-05-26T05:28:43.106Z,29.40
2018-05-26T05:31:11.036Z,29.70
2018-05-26T05:33:37.517Z,29.60
2018-05-26T05:36:04.041Z,29.80
2018-05-26T05:38:30.503Z,30.00
2018-05-26T05:40:56.905Z,30.50
2018-05-26T05:43:23.345Z,30.80
2018-05-26T05:45:49.774Z,31.10
2018-05-26T05:48:16.182Z,31.30
2018-05-26T05:50:42.678Z,31.60
2018-05-26T05:53:09.838Z,32.40
2018-05-26T05:55:36.999Z,33.30
2018-05-26T05:58:04.167Z,34.10
2018-05-26T06:00:30.601Z,34.00
2018-05-26T06:02:57.006Z,34.70
2018-05-26T06:05:23.470Z,35.20
2018-05-26T06:07:49.900Z,35.50
2018-05-26T06:10:17.004Z,35.50
2018-05-26T06:12:44.045Z,35.60
2018-05-26T06:15:10.522Z,35.60
2018-05-26T06:17:36.975Z,35.60
2018-05-26T06:20:04.350Z,35.60
2018-05-26T06:22:32.158Z,35.70
2018-05-26T06:24:58.590Z,35.70
2018-05-26T06:27:25.867Z,36.00
2018-05-26T06:29:53.031Z,36.50
2018-05-26T06:32:20.315Z,36.90
2018-05-26T06:34:47.528Z,37.10
2018-05-26T06:37:13.953Z,37.00
2018-05-26T06:39:40.505Z,37.30
2018-05-26T06:42:06.975Z,37.80
2018-05-26T06:44:33.458Z,38.50
2018-05-26T06:47:00.498Z,39.20
2018-05-26T06:49:26.982Z,39.50
2018-05-26T06:51:53.601Z,40.00
2018-05-26T06:54:20.814Z,41.30
2018-05-26T06:56:47.267Z,41.30
2018-05-26T06:59:13.719Z,42.00
2018-05-26T07:01:40.130Z,42.50
2018-05-26T07:04:07.285Z,43.10
2018-05-26T07:06:34.437Z,43.30
2018-05-26T07:09:00.847Z,43.30
2018-05-26T07:11:27.400Z,43.70
2018-05-26T07:13:53.850Z,43.50
2018-05-26T07:16:21.008Z,43.90
2018-05-26T07:18:48.212Z,44.50
2018-05-26T07:21:15.183Z,44.50
2018-05-26T07:23:41.670Z,44.80
2018-05-26T07:26:08.083Z,45.00
2018-05-26T07:28:35.314Z,45.30
2018-05-26T07:31:01.725Z,45.30
2018-05-26T07:33:28.162Z,45.60
2018-05-26T07:35:55.326Z,46.00
2018-05-26T07:38:22.486Z,46.20
2018-05-26T07:40:48.968Z,46.10
2018-05-26T07:43:15.399Z,46.50
2018-05-26T07:45:41.943Z,46.70
2018-05-26T07:48:14.584Z,46.90
2018-05-26T07:50:41.134Z,47.10
2018-05-26T07:53:08.335Z,47.50
2018-05-26T07:55:34.748Z,47.50
2018-05-26T07:58:01.930Z,47.20
2018-05-26T08:00:29.250Z,47.00
2018-05-26T08:02:55.711Z,47.00
2018-05-26T08:05:22.169Z,46.40
2018-05-26T08:07:48.681Z,45.50
2018-05-26T08:10:15.743Z,44.80
2018-05-26T08:12:42.979Z,43.70
2018-05-26T08:15:09.458Z,43.70
2018-05-26T08:17:35.931Z,43.30
2018-05-26T08:20:06.963Z,41.30
2018-05-26T08:22:33.453Z,41.20
2018-05-26T08:24:59.858Z,39.70
2018-05-26T08:27:26.283Z,38.40
2018-05-26T08:29:52.720Z,37.20
2018-05-26T08:32:19.994Z,34.60
2018-05-26T08:34:47.144Z,33.30
2018-05-26T08:37:13.568Z,33.20
2018-05-26T08:39:40.046Z,32.20
2018-05-26T08:42:07.313Z,31.40
2018-05-26T08:44:33.759Z,30.50
2018-05-26T08:47:00.197Z,29.80
2018-05-26T08:49:26.626Z,29.10
2018-05-26T08:51:53.776Z,28.20
2018-05-26T08:54:20.244Z,28.10
2018-05-26T08:56:47.524Z,27.30
2018-05-26T08:59:13.991Z,27.30
2018-05-26T09:01:40.427Z,27.00
2018-05-26T09:04:07.635Z,26.60
2018-05-26T09:06:34.038Z,26.60
2018-05-26T09:09:00.528Z,26.70
2018-05-26T09:11:27.084Z,26.70
2018-05-26T09:13:53.574Z,26.80
2018-05-26T09:16:19.976Z,27.00
2018-05-26T09:18:47.145Z,27.50
2018-05-26T09:21:14.340Z,27.60
2018-05-26T09:23:41.565Z,27.70
2018-05-26T09:26:08.069Z,27.60
2018-05-26T09:28:35.345Z,27.90
2018-05-26T09:31:02.525Z,28.00
2018-05-26T09:33:29.076Z,28.10
2018-05-26T09:35:56.235Z,28.30
2018-05-26T09:38:23.400Z,28.30
2018-05-26T09:40:49.951Z,28.20
2018-05-26T09:43:16.436Z,28.20
2018-05-26T09:45:43.597Z,27.90
2018-05-26T09:48:10.766Z,27.90
2018-05-26T09:50:37.930Z,27.80
2018-05-26T09:53:04.392Z,27.80
2018-05-26T09:55:31.629Z,27.50
2018-05-26T09:57:58.142Z,27.50
2018-05-26T10:00:24.697Z,27.50
2018-05-26T10:02:51.855Z,27.80
2018-05-26T10:05:18.993Z,28.00
2018-05-26T10:07:45.413Z,28.00
2018-05-26T10:10:11.910Z,28.10
2018-05-26T10:12:38.416Z,28.20
2018-05-26T10:15:05.608Z,28.30
2018-05-26T10:17:32.071Z,28.30
2018-05-26T10:19:58.499Z,28.40
2018-05-26T10:22:24.937Z,28.40
2018-05-26T10:24:52.029Z,28.60
2018-05-26T10:27:18.462Z,28.60
2018-05-26T10:29:45.958Z,28.60
2018-05-26T10:32:13.284Z,28.50
2018-05-26T10:34:39.737Z,28.50
2018-05-26T10:37:06.195Z,28.40
2018-05-26T10:39:32.687Z,28.10
2018-05-26T10:41:59.844Z,27.40
2018-05-26T10:44:26.326Z,27.40
2018-05-26T10:46:52.761Z,27.20
2018-05-26T10:49:19.253Z,27.00
2018-05-26T10:51:46.626Z,26.90
2018-05-26T10:54:15.082Z,26.90
2018-05-26T10:56:41.569Z,27.00
2018-05-26T10:59:08.836Z,27.20
2018-05-26T11:01:35.232Z,27.10
2018-05-26T11:04:03.085Z,27.30
2018-05-26T11:06:42.413Z,27.20
2018-05-26T11:09:08.801Z,27.20
2018-05-26T11:11:35.356Z,27.10
2018-05-26T11:14:01.847Z,26.90
2018-05-26T11:16:28.368Z,26.80
2018-05-26T11:18:55.981Z,26.50
2018-05-26T11:21:22.510Z,26.50
2018-05-26T11:23:49.692Z,26.20
2018-05-26T11:26:16.348Z,26.20
2018-05-26T11:28:42.808Z,26.10
2018-05-26T11:31:09.266Z,26.00
2018-05-26T11:33:35.927Z,25.70
2018-05-26T11:36:02.404Z,25.50
2018-05-26T11:38:28.862Z,25.40
2018-05-26T11:40:55.299Z,25.60
2018-05-26T11:43:21.740Z,25.60
2018-05-26T11:45:48.890Z,25.80
2018-05-26T11:48:15.472Z,25.80
2018-05-26T11:50:42.031Z,25.90
2018-05-26T11:53:09.304Z,26.10
2018-05-26T11:55:36.434Z,26.10
2018-05-26T11:58:02.935Z,26.10
2018-05-26T12:00:30.127Z,25.90
2018-05-26T12:02:56.568Z,25.90
2018-05-26T12:05:23.120Z,25.80
2018-05-26T12:07:50.288Z,25.60
2018-05-26T12:10:16.736Z,25.60
2018-05-26T12:12:43.888Z,25.50
2018-05-26T12:15:10.311Z,25.40
2018-05-26T12:17:36.833Z,25.50
2018-05-26T12:20:04.018Z,25.40
2018-05-26T12:22:30.445Z,25.30
2018-05-26T12:24:57.634Z,25.20
2018-05-26T12:27:24.808Z,25.10
2018-05-26T12:29:53.615Z,25.10
2018-05-26T12:32:20.773Z,24.90
2018-05-26T12:34:47.965Z,24.90
2018-05-26T12:37:14.419Z,24.80
2018-05-26T12:39:41.657Z,24.70
2018-05-26T12:42:08.075Z,24.70
2018-05-26T12:44:34.518Z,24.70
2018-05-26T12:47:01.558Z,24.70
2018-05-26T12:49:28.714Z,24.60
2018-05-26T12:51:55.934Z,24.70
2018-05-26T12:54:22.475Z,24.70
2018-05-26T12:56:49.608Z,24.80
2018-05-26T12:59:16.049Z,24.80
2018-05-26T13:01:42.535Z,24.80
2018-05-26T13:04:08.982Z,25.00
2018-05-26T13:06:36.061Z,25.20
2018-05-26T13:09:03.060Z,25.50
2018-05-26T13:11:29.450Z,25.80
2018-05-26T13:13:55.893Z,26.10
2018-05-26T13:16:22.321Z,26.30
2018-05-26T13:18:49.492Z,26.80
2018-05-26T13:21:16.689Z,26.90
2018-05-26T13:23:43.117Z,26.90
2018-05-26T13:26:10.312Z,27.30
2018-05-26T13:28:36.698Z,27.30
2018-05-26T13:31:03.175Z,27.30
2018-05-26T13:33:29.606Z,27.30
2018-05-26T13:35:56.103Z,27.20
2018-05-26T13:38:23.256Z,27.20
2018-05-26T13:40:51.489Z,27.00
2018-05-26T13:43:18.689Z,26.80
2018-05-26T13:45:45.107Z,26.80
2018-05-26T13:48:12.280Z,26.90
2018-05-26T13:50:39.504Z,26.90
2018-05-26T13:53:05.977Z,26.90
2018-05-26T13:55:32.470Z,27.10
2018-05-26T13:57:59.752Z,27.20
2018-05-26T14:00:27.032Z,27.20
2018-05-26T14:02:53.471Z,27.20
2018-05-26T14:05:20.663Z,27.60
2018-05-26T14:07:47.212Z,27.60
2018-05-26T14:10:13.645Z,27.80
2018-05-26T14:12:40.127Z,27.80
2018-05-26T14:15:07.402Z,27.80
2018-05-26T14:17:34.590Z,27.80
2018-05-26T14:20:01.132Z,27.80
2018-05-26T14:22:28.333Z,27.70
2018-05-26T14:24:54.765Z,27.70
2018-05-26T14:27:21.222Z,27.70
2018-05-26T14:29:47.685Z,27.70
2018-05-26T14:32:14.097Z,27.60
2018-05-26T14:34:40.598Z,27.60
2018-05-26T14:37:07.127Z,27.60
2018-05-26T14:39:33.600Z,27.60
2018-05-26T14:42:00.762Z,27.20
2018-05-26T14:44:28.102Z,27.00
2018-05-26T14:46:55.165Z,27.00
2018-05-26T14:49:21.650Z,26.90
2018-05-26T14:51:48.105Z,26.70
2018-05-26T14:54:14.795Z,26.50
2018-05-26T14:56:41.972Z,26.20
2018-05-26T14:59:08.422Z,26.20
2018-05-26T15:01:34.884Z,26.00
2018-05-26T15:04:02.100Z,25.90
2018-05-26T15:06:28.552Z,25.90
2018-05-26T15:08:54.999Z,25.90
2018-05-26T15:11:21.593Z,25.90
2018-05-26T15:13:48.017Z,25.90
2018-05-26T15:16:14.405Z,26.00
2018-05-26T15:18:40.893Z,26.10
2018-05-26T15:21:08.077Z,26.30
2018-05-26T15:23:34.523Z,26.30
2018-05-26T15:26:00.990Z,26.50
2018-05-26T15:28:27.371Z,26.70
2018-05-26T15:30:53.805Z,26.90
2018-05-26T15:33:20.225Z,26.90
2018-05-26T15:35:47.399Z,26.80
2018-05-26T15:38:13.821Z,26.80
2018-05-26T15:40:40.330Z,26.80
2018-05-26T15:43:07.604Z,26.60
2018-05-26T15:45:34.122Z,26.60
2018-05-26T15:48:00.609Z,26.50
2018-05-26T15:50:27.100Z,26.40
2018-05-26T15:52:53.635Z,26.40
2018-05-26T15:55:21.465Z,26.20
2018-05-26T15:57:47.877Z,26.20
2018-05-26T16:00:15.068Z,25.90
2018-05-26T16:02:41.477Z,25.90
2018-05-26T16:05:08.677Z,25.60
2018-05-26T16:07:35.937Z,25.30
2018-05-26T16:10:03.107Z,25.10
2018-05-26T16:12:29.583Z,25.10
2018-05-26T16:14:56.796Z,24.80
2018-05-26T16:17:23.721Z,24.80
2018-05-26T16:19:51.595Z,24.50
2018-05-26T16:22:18.792Z,24.40
2018-05-26T16:24:45.257Z,24.40
2018-05-26T16:27:11.729Z,24.30
2018-05-26T16:29:38.148Z,24.20
2018-05-26T16:32:05.318Z,24.10
2018-05-26T16:34:31.778Z,24.10
2018-05-26T16:36:58.978Z,24.00
2018-05-26T16:39:25.511Z,23.90
2018-05-26T16:41:52.692Z,24.00
2018-05-26T16:44:19.124Z,23.90
2018-05-26T16:46:46.322Z,24.00
2018-05-26T16:49:12.784Z,24.00
2018-05-26T16:51:39.332Z,24.10
2018-05-26T16:54:05.754Z,24.20
2018-05-26T16:56:32.240Z,24.20
2018-05-26T16:58:59.515Z,24.30
2018-05-26T17:01:26.787Z,24.30
2018-05-26T17:03:54.063Z,24.40
2018-05-26T17:06:21.286Z,24.30
2018-05-26T17:08:47.794Z,24.30
2018-05-26T17:11:14.288Z,24.20
2018-05-26T17:13:40.912Z,24.20
2018-05-26T17:16:08.288Z,24.00
2018-05-26T17:18:36.440Z,24.00
2018-05-26T17:21:02.897Z,24.00
2018-05-26T17:23:29.357Z,23.90
2018-05-26T17:25:55.800Z,23.90
2018-05-26T17:28:22.215Z,23.80
2018-05-26T17:30:48.686Z,23.80
2018-05-26T17:33:15.225Z,23.70
2018-05-26T17:35:42.379Z,23.60
2018-05-26T17:38:09.534Z,23.50
2018-05-26T17:40:36.025Z,23.50
2018-05-26T17:43:02.484Z,23.50
2018-05-26T17:45:28.929Z,23.40
2018-05-26T17:47:56.211Z,23.30
2018-05-26T17:50:22.643Z,23.30
2018-05-26T17:52:49.039Z,23.20
2018-05-26T17:55:15.584Z,23.20
2018-05-26T17:57:42.224Z,23.10
2018-05-26T18:00:08.625Z,23.00
2018-05-26T18:02:35.050Z,22.90
2018-05-26T18:05:02.266Z,22.70
2018-05-26T18:07:28.733Z,22.70
2018-05-26T18:09:56.723Z,22.60
2018-05-26T18:12:23.163Z,22.50
2018-05-26T18:14:49.590Z,22.30
2018-05-26T18:17:16.041Z,22.10
2018-05-26T18:19:43.209Z,21.90
2018-05-26T18:22:10.429Z,21.70
2018-05-26T18:24:36.945Z,21.70
2018-05-26T18:27:03.504Z,21.60
2018-05-26T18:29:30.674Z,21.40
2018-05-26T18:31:57.923Z,21.20
2018-05-26T18:34:25.327Z,21.10
2018-05-26T18:36:51.754Z,21.10
2018-05-26T18:39:18.927Z,20.90
2018-05-26T18:41:45.389Z,20.80
2018-05-26T18:44:11.810Z,20.70
2018-05-26T18:46:38.308Z,20.60
2018-05-26T18:49:05.481Z,20.40
2018-05-26T18:51:32.708Z,20.20
2018-05-26T18:53:59.210Z,20.20
2018-05-26T18:56:26.462Z,20.00
2018-05-26T18:58:52.959Z,20.00
2018-05-26T19:01:19.399Z,19.90
2018-05-26T19:03:46.694Z,19.70
2018-05-26T19:06:13.349Z,19.70
2018-05-26T19:08:40.585Z,19.40
2018-05-26T19:11:07.295Z,19.40
2018-05-26T19:13:33.850Z,19.30
2018-05-26T19:16:00.390Z,19.20
2018-05-26T19:18:27.680Z,19.00
2018-05-26T19:20:54.130Z,19.00
2018-05-26T19:23:21.464Z,18.80
2018-05-26T19:25:48.083Z,18.80
2018-05-26T19:28:14.561Z,18.70
2018-05-26T19:30:42.128Z,18.70
2018-05-26T19:33:08.767Z,18.60
2018-05-26T19:35:36.569Z,18.50
2018-05-26T19:38:03.212Z,18.40
2018-05-26T19:40:30.599Z,18.30
2018-05-26T19:42:57.254Z,18.30
2018-05-26T19:45:23.719Z,18.30
2018-05-26T19:47:50.195Z,18.20
2018-05-26T19:50:16.734Z,18.10
2018-05-26T19:52:43.669Z,18.10
2018-05-26T19:55:11.327Z,18.00
2018-05-26T19:57:37.836Z,17.90
2018-05-26T20:00:04.503Z,17.90
2018-05-26T20:02:31.143Z,17.90
2018-05-26T20:05:02.181Z,17.70
2018-05-26T20:07:28.772Z,17.70
2018-05-26T20:09:55.435Z,17.70
2018-05-26T20:12:21.995Z,17.70
2018-05-26T20:14:48.469Z,17.60
2018-05-26T20:17:14.906Z,17.60
2018-05-26T20:19:41.566Z,17.50
2018-05-26T20:22:08.030Z,17.50
2018-05-26T20:24:34.524Z,17.40
2018-05-26T20:27:01.639Z,17.30
2018-05-26T20:29:28.834Z,17.10
2018-05-26T20:31:55.281Z,17.10
2018-05-26T20:34:21.727Z,17.00
2018-05-26T20:36:48.919Z,16.90
2018-05-26T20:39:15.466Z,16.90
2018-05-26T20:41:43.220Z,16.90
2018-05-26T20:44:09.698Z,16.80
2018-05-26T20:46:36.910Z,16.70
2018-05-26T20:49:03.419Z,16.70
2018-05-26T20:51:29.866Z,16.70
2018-05-26T20:53:56.455Z,16.60
2018-05-26T20:56:23.641Z,16.50
2018-05-26T20:58:50.185Z,16.50
2018-05-26T21:01:17.402Z,16.40
2018-05-26T21:03:43.876Z,16.40
2018-05-26T21:06:10.357Z,16.40
2018-05-26T21:08:37.510Z,16.30
2018-05-26T21:11:04.307Z,16.20
2018-05-26T21:13:31.485Z,16.10
2018-05-26T21:15:57.913Z,16.10
2018-05-26T21:18:24.351Z,16.10
2018-05-26T21:20:50.912Z,16.00
2018-05-26T21:23:17.369Z,16.00
2018-05-26T21:25:43.872Z,16.00
2018-05-26T21:28:10.531Z,15.90
2018-05-26T21:30:37.187Z,15.90
2018-05-26T21:33:04.561Z,15.80
2018-05-26T21:35:31.948Z,15.80
2018-05-26T21:37:58.505Z,15.80
2018-05-26T21:40:25.058Z,15.70
2018-05-26T21:42:52.272Z,15.60
2018-05-26T21:45:18.893Z,15.60
2018-05-26T21:47:45.288Z,15.60
2018-05-26T21:50:11.904Z,15.60
2018-05-26T21:52:39.171Z,15.50
2018-05-26T21:55:07.307Z,15.50
2018-05-26T21:57:37.619Z,15.50
2018-05-26T22:00:05.005Z,15.40
2018-05-26T22:02:31.546Z,15.40
2018-05-26T22:04:58.703Z,15.40
2018-05-26T22:07:25.146Z,15.40
2018-05-26T22:09:51.636Z,15.40
2018-05-26T22:12:18.913Z,15.30
2018-05-26T22:14:45.350Z,15.30
2018-05-26T22:17:12.801Z,15.20
2018-05-26T22:19:39.453Z,15.20
2018-05-26T22:22:05.929Z,15.20
2018-05-26T22:24:32.364Z,15.10
2018-05-26T22:26:58.804Z,15.10
2018-05-26T22:29:25.223Z,15.10
2018-05-26T22:31:52.413Z,15.00
2018-05-26T22:34:18.962Z,15.00
2018-05-26T22:36:45.520Z,15.00
2018-05-26T22:39:12.080Z,15.00
2018-05-26T22:41:39.259Z,15.00
2018-05-26T22:44:06.675Z,15.00
2018-05-26T22:46:33.131Z,15.00
2018-05-26T22:49:00.055Z,15.00
2018-05-26T22:51:26.486Z,14.90
2018-05-26T22:53:52.888Z,14.90
2018-05-26T22:56:19.318Z,14.90
2018-05-26T22:58:46.491Z,14.90
2018-05-26T23:01:13.767Z,14.90
2018-05-26T23:03:40.981Z,14.90
2018-05-26T23:06:07.413Z,14.90
2018-05-26T23:08:33.838Z,14.90
2018-05-26T23:11:01.003Z,15.00
2018-05-26T23:13:28.182Z,15.00
2018-05-26T23:15:55.350Z,15.00
2018-05-26T23:18:22.546Z,15.10
2018-05-26T23:20:48.952Z,15.00
2018-05-26T23:23:19.283Z,15.10
2018-05-26T23:25:45.691Z,15.10
2018-05-26T23:28:12.355Z,15.10
2018-05-26T23:30:39.630Z,15.10
2018-05-26T23:33:06.903Z,15.10
2018-05-26T23:35:34.021Z,15.10
2018-05-26T23:38:00.532Z,15.10
2018-05-26T23:40:27.814Z,15.10
2018-05-26T23:42:54.286Z,15.10
2018-05-26T23:45:20.729Z,15.20
2018-05-26T23:47:47.279Z,15.20
2018-05-26T23:50:14.470Z,15.10
2018-05-26T23:52:41.009Z,15.10
2018-05-26T23:55:07.581Z,15.10
2018-05-26T23:57:34.127Z,15.10
